sensor_id;sensor_type;location;lat;lon;timestamp;pressure;altitude;pressure_sealevel;temperature;humidity
56825;BME280;42705;50.326;18.772;2022-12-18T00:03:20;99938.17;;;-3.64;69.33
56825;BME280;42705;50.326;18.772;2022-12-18T00:08:42;99943.30;;;-3.64;69.34
56825;BME280;42705;50.326;18.772;2022-12-18T00:14:03;99944.12;;;-3.59;69.35
56825;BME280;42705;50.326;18.772;2022-12-18T00:19:24;99946.27;;;-3.63;69.17
56825;BME280;42705;50.326;18.772;2022-12-18T00:24:46;99948.77;;;-3.54;69.41
56825;BME280;42705;50.326;18.772;2022-12-18T00:30:08;99953.95;;;-3.61;68.84
56825;BME280;42705;50.326;18.772;2022-12-18T00:35:31;99953.95;;;-3.63;69.10
56825;BME280;42705;50.326;18.772;2022-12-18T00:40:52;99958.25;;;-3.64;69.13
56825;BME280;42705;50.326;18.772;2022-12-18T00:46:13;99971.14;;;-3.73;68.84
56825;BME280;42705;50.326;18.772;2022-12-18T00:51:34;99988.21;;;-3.73;68.92
56825;BME280;42705;50.326;18.772;2022-12-18T00:56:56;99980.60;;;-3.83;68.92
56825;BME280;42705;50.326;18.772;2022-12-18T01:02:17;100002.03;;;-3.93;68.75
56825;BME280;42705;50.326;18.772;2022-12-18T01:07:38;100005.52;;;-4.07;68.89
56825;BME280;42705;50.326;18.772;2022-12-18T01:13:00;100008.45;;;-3.98;69.35
56825;BME280;42705;50.326;18.772;2022-12-18T01:18:21;100011.92;;;-4.05;69.07
56825;BME280;42705;50.326;18.772;2022-12-18T01:23:42;100006.83;;;-4.13;69.05
56825;BME280;42705;50.326;18.772;2022-12-18T01:29:04;100010.26;;;-4.12;69.24
56825;BME280;42705;50.326;18.772;2022-12-18T01:34:26;100017.45;;;-4.05;69.35
56825;BME280;42705;50.326;18.772;2022-12-18T01:39:47;100021.31;;;-4.09;69.21
56825;BME280;42705;50.326;18.772;2022-12-18T01:50:40;100029.47;;;-4.18;69.27
56825;BME280;42705;50.326;18.772;2022-12-18T01:56:03;100038.45;;;-4.20;69.38
56825;BME280;42705;50.326;18.772;2022-12-18T02:01:25;100044.87;;;-4.23;69.39
56825;BME280;42705;50.326;18.772;2022-12-18T02:06:53;100050.84;;;-4.24;69.41
56825;BME280;42705;50.326;18.772;2022-12-18T02:12:28;100067.09;;;-4.38;69.35
56825;BME280;42705;50.326;18.772;2022-12-18T02:18:08;100077.78;;;-4.43;69.54
56825;BME280;42705;50.326;18.772;2022-12-18T02:23:42;100072.65;;;-4.40;69.87
56825;BME280;42705;50.326;18.772;2022-12-18T02:29:12;100086.30;;;-4.34;69.94
56825;BME280;42705;50.326;18.772;2022-12-18T02:34:40;100084.56;;;-4.31;70.05
56825;BME280;42705;50.326;18.772;2022-12-18T02:40:05;100088.84;;;-4.31;69.94
56825;BME280;42705;50.326;18.772;2022-12-18T02:45:28;100085.45;;;-4.33;69.93
56825;BME280;42705;50.326;18.772;2022-12-18T02:51:06;100094.80;;;-4.31;70.17
56825;BME280;42705;50.326;18.772;2022-12-18T02:56:38;100102.43;;;-4.17;70.44
56825;BME280;42705;50.326;18.772;2022-12-18T03:02:16;100119.44;;;-4.07;70.25
56825;BME280;42705;50.326;18.772;2022-12-18T03:07:49;100131.41;;;-4.07;70.13
56825;BME280;42705;50.326;18.772;2022-12-18T03:13:28;100129.69;;;-4.05;70.17
56825;BME280;42705;50.326;18.772;2022-12-18T03:19:08;100133.92;;;-3.96;70.05
56825;BME280;42705;50.326;18.772;2022-12-18T03:24:33;100135.19;;;-3.93;70.11
56825;BME280;42705;50.326;18.772;2022-12-18T03:30:08;100132.96;;;-3.76;70.13
56825;BME280;42705;50.326;18.772;2022-12-18T03:35:36;100135.94;;;-3.75;69.98
56825;BME280;42705;50.326;18.772;2022-12-18T03:52:30;100156.94;;;-3.92;69.69
56825;BME280;42705;50.326;18.772;2022-12-18T03:57:55;100162.53;;;-4.00;69.62
56825;BME280;42705;50.326;18.772;2022-12-18T04:03:20;100167.20;;;-3.99;69.71
56825;BME280;42705;50.326;18.772;2022-12-18T04:08:43;100169.31;;;-3.88;69.89
56825;BME280;42705;50.326;18.772;2022-12-18T04:14:06;100175.69;;;-3.86;69.58
56825;BME280;42705;50.326;18.772;2022-12-18T04:19:28;100178.66;;;-3.81;69.59
56825;BME280;42705;50.326;18.772;2022-12-18T04:24:50;100185.55;;;-3.98;69.20
56825;BME280;42705;50.326;18.772;2022-12-18T04:30:13;100197.97;;;-4.09;69.37
56825;BME280;42705;50.326;18.772;2022-12-18T04:35:35;100188.20;;;-4.15;69.40
56825;BME280;42705;50.326;18.772;2022-12-18T04:40:56;100202.27;;;-4.17;69.53
56825;BME280;42705;50.326;18.772;2022-12-18T04:46:19;100208.66;;;-4.12;69.72
56825;BME280;42705;50.326;18.772;2022-12-18T04:51:42;100205.63;;;-4.01;69.77
56825;BME280;42705;50.326;18.772;2022-12-18T04:57:03;100215.85;;;-3.95;69.72
56825;BME280;42705;50.326;18.772;2022-12-18T05:02:24;100220.95;;;-3.88;69.77
56825;BME280;42705;50.326;18.772;2022-12-18T05:07:45;100238.00;;;-3.80;69.72
56825;BME280;42705;50.326;18.772;2022-12-18T05:13:06;100244.01;;;-3.92;69.33
56825;BME280;42705;50.326;18.772;2022-12-18T05:18:28;100244.03;;;-3.93;69.51
56825;BME280;42705;50.326;18.772;2022-12-18T05:23:49;100250.87;;;-3.95;69.64
56825;BME280;42705;50.326;18.772;2022-12-18T05:29:10;100250.41;;;-3.87;69.64
56825;BME280;42705;50.326;18.772;2022-12-18T05:34:33;100253.00;;;-3.93;69.23
56825;BME280;42705;50.326;18.772;2022-12-18T05:39:54;100257.70;;;-4.02;69.41
56825;BME280;42705;50.326;18.772;2022-12-18T05:45:15;100259.88;;;-4.15;69.26
56825;BME280;42705;50.326;18.772;2022-12-18T05:50:40;100276.06;;;-4.12;69.74
56825;BME280;42705;50.326;18.772;2022-12-18T05:56:03;100277.34;;;-4.09;69.63
56825;BME280;42705;50.326;18.772;2022-12-18T06:01:26;100274.34;;;-3.94;70.05
56825;BME280;42705;50.326;18.772;2022-12-18T06:06:47;100284.98;;;-3.87;69.86
56825;BME280;42705;50.326;18.772;2022-12-18T06:12:09;100284.06;;;-3.67;70.11
56825;BME280;42705;50.326;18.772;2022-12-18T06:17:31;100283.12;;;-3.44;70.06
56825;BME280;42705;50.326;18.772;2022-12-18T06:22:53;100285.19;;;-3.30;69.73
56825;BME280;42705;50.326;18.772;2022-12-18T06:28:14;100292.91;;;-3.36;69.25
56825;BME280;42705;50.326;18.772;2022-12-18T06:33:36;100303.64;;;-3.44;69.23
56825;BME280;42705;50.326;18.772;2022-12-18T06:38:57;100312.67;;;-3.69;68.60
56825;BME280;42705;50.326;18.772;2022-12-18T06:44:19;100323.85;;;-3.95;68.70
56825;BME280;42705;50.326;18.772;2022-12-18T06:49:40;100330.27;;;-4.12;68.95
56825;BME280;42705;50.326;18.772;2022-12-18T06:55:02;100337.52;;;-4.29;69.13
56825;BME280;42705;50.326;18.772;2022-12-18T07:00:24;100346.06;;;-4.25;69.40
56825;BME280;42705;50.326;18.772;2022-12-18T07:05:45;100343.08;;;-4.29;69.26
56825;BME280;42705;50.326;18.772;2022-12-18T07:11:06;100351.58;;;-4.43;69.48
56825;BME280;42705;50.326;18.772;2022-12-18T07:16:27;100360.11;;;-4.44;69.38
56825;BME280;42705;50.326;18.772;2022-12-18T07:21:50;100366.52;;;-4.45;69.63
56825;BME280;42705;50.326;18.772;2022-12-18T07:27:11;100372.06;;;-4.38;69.68
56825;BME280;42705;50.326;18.772;2022-12-18T07:32:32;100372.08;;;-4.33;69.76
56825;BME280;42705;50.326;18.772;2022-12-18T07:37:53;100378.89;;;-4.34;69.69
56825;BME280;42705;50.326;18.772;2022-12-18T07:43:14;100392.98;;;-4.26;69.73
56825;BME280;42705;50.326;18.772;2022-12-18T07:48:35;100393.41;;;-4.03;70.06
56825;BME280;42705;50.326;18.772;2022-12-18T07:53:57;100384.01;;;-3.80;69.90
56825;BME280;42705;50.326;18.772;2022-12-18T07:59:18;100381.80;;;-3.46;70.01
56825;BME280;42705;50.326;18.772;2022-12-18T08:04:39;100387.30;;;-3.22;69.52
56825;BME280;42705;50.326;18.772;2022-12-18T08:10:00;100380.33;;;-2.95;69.49
56825;BME280;42705;50.326;18.772;2022-12-18T08:15:21;100384.08;;;-2.74;69.03
56825;BME280;42705;50.326;18.772;2022-12-18T08:20:42;100393.42;;;-2.63;68.75
56825;BME280;42705;50.326;18.772;2022-12-18T08:26:03;100394.25;;;-2.57;68.33
56825;BME280;42705;50.326;18.772;2022-12-18T08:31:25;100403.68;;;-2.58;68.04
56825;BME280;42705;50.326;18.772;2022-12-18T08:36:47;100407.48;;;-2.52;67.98
56825;BME280;42705;50.326;18.772;2022-12-18T08:42:08;100414.78;;;-2.57;67.50
56825;BME280;42705;50.326;18.772;2022-12-18T08:47:48;100421.23;;;-2.64;67.48
56825;BME280;42705;50.326;18.772;2022-12-18T08:53:09;100436.59;;;-2.57;67.48
56825;BME280;42705;50.326;18.772;2022-12-18T08:58:30;100440.39;;;-2.48;67.26
56825;BME280;42705;50.326;18.772;2022-12-18T09:03:52;100444.66;;;-2.41;67.08
56825;BME280;42705;50.326;18.772;2022-12-18T09:09:14;100447.13;;;-2.30;67.37
56825;BME280;42705;50.326;18.772;2022-12-18T09:14:35;100454.81;;;-2.25;66.51
56825;BME280;42705;50.326;18.772;2022-12-18T09:19:56;100453.54;;;-2.24;66.48
56825;BME280;42705;50.326;18.772;2022-12-18T09:25:17;100453.40;;;-2.05;66.57
56825;BME280;42705;50.326;18.772;2022-12-18T09:30:40;100458.46;;;-1.96;66.26
56825;BME280;42705;50.326;18.772;2022-12-18T09:36:05;100459.12;;;-1.69;65.92
56825;BME280;42705;50.326;18.772;2022-12-18T09:47:27;100453.27;;;-0.97;64.85
56825;BME280;42705;50.326;18.772;2022-12-18T09:52:53;100451.33;;;-0.80;64.55
56825;BME280;42705;50.326;18.772;2022-12-18T09:58:24;100451.33;;;-0.80;64.55
56825;BME280;42705;50.326;18.772;2022-12-18T10:03:54;100454.48;;;-0.56;64.26
56825;BME280;42705;50.326;18.772;2022-12-18T10:21:15;100440.55;;;-0.42;63.18
56825;BME280;42705;50.326;18.772;2022-12-18T10:26:41;100435.30;;;-0.35;63.19
56825;BME280;42705;50.326;18.772;2022-12-18T10:32:03;100435.11;;;-0.51;62.36
56825;BME280;42705;50.326;18.772;2022-12-18T10:37:27;100424.13;;;-0.64;62.05
56825;BME280;42705;50.326;18.772;2022-12-18T10:43:12;100428.82;;;-0.64;61.96
56825;BME280;42705;50.326;18.772;2022-12-18T10:48:53;100422.29;;;-0.56;61.73
56825;BME280;42705;50.326;18.772;2022-12-18T10:54:21;100406.86;;;-0.27;61.15
56825;BME280;42705;50.326;18.772;2022-12-18T10:59:53;100406.86;;;-0.27;61.15
56825;BME280;42705;50.326;18.772;2022-12-18T11:05:30;100404.14;;;-0.19;60.87
56825;BME280;42705;50.326;18.772;2022-12-18T11:10:53;100392.84;;;-0.10;60.25
56825;BME280;42705;50.326;18.772;2022-12-18T11:16:20;100394.20;;;0.12;60.17
56825;BME280;42705;50.326;18.772;2022-12-18T11:21:42;100383.20;;;0.28;60.16
56825;BME280;42705;50.326;18.772;2022-12-18T11:27:05;100390.16;;;0.48;59.91
56825;BME280;42705;50.326;18.772;2022-12-18T11:32:36;100398.25;;;0.52;59.50
56825;BME280;42705;50.326;18.772;2022-12-18T11:38:02;100406.87;;;0.25;59.40
56825;BME280;42705;50.326;18.772;2022-12-18T11:43:28;100407.74;;;-0.02;59.28
56825;BME280;42705;50.326;18.772;2022-12-18T11:49:13;100417.78;;;-0.11;59.35
56825;BME280;42705;50.326;18.772;2022-12-18T11:54:45;100415.46;;;-0.28;58.98
56825;BME280;42705;50.326;18.772;2022-12-18T12:00:15;100418.55;;;-0.33;59.10
56825;BME280;42705;50.326;18.772;2022-12-18T12:11:59;100426.11;;;0.31;59.36
56825;BME280;42705;50.326;18.772;2022-12-18T12:18:32;100425.81;;;1.17;59.01
56825;BME280;42705;50.326;18.772;2022-12-18T12:34:36;100435.98;;;2.54;56.38
56825;BME280;42705;50.326;18.772;2022-12-18T12:40:19;100433.94;;;3.14;55.66
56825;BME280;42705;50.326;18.772;2022-12-18T12:45:47;100435.17;;;3.15;55.02
56825;BME280;42705;50.326;18.772;2022-12-18T13:02:59;100426.17;;;3.14;54.21
56825;BME280;42705;50.326;18.772;2022-12-18T13:13:52;100440.77;;;4.93;53.32
56825;BME280;42705;50.326;18.772;2022-12-18T13:19:23;100428.06;;;5.55;52.65
56825;BME280;42705;50.326;18.772;2022-12-18T13:24:46;100450.03;;;6.15;52.01
56825;BME280;42705;50.326;18.772;2022-12-18T13:42:30;100442.75;;;6.85;50.41
56825;BME280;42705;50.326;18.772;2022-12-18T13:47:33;100452.73;;;6.65;50.15
56825;BME280;42705;50.326;18.772;2022-12-18T13:52:56;100444.95;;;6.44;49.83
56825;BME280;42705;50.326;18.772;2022-12-18T13:58:18;100442.14;;;6.06;49.71
56825;BME280;42705;50.326;18.772;2022-12-18T14:03:39;100437.24;;;5.54;49.73
56825;BME280;42705;50.326;18.772;2022-12-18T14:09:02;100440.25;;;4.83;49.78
56825;BME280;42705;50.326;18.772;2022-12-18T14:14:23;100445.12;;;4.28;49.88
56825;BME280;42705;50.326;18.772;2022-12-18T14:19:48;100437.50;;;3.83;50.13
56825;BME280;42705;50.326;18.772;2022-12-18T14:25:17;100443.23;;;3.36;50.33
56825;BME280;42705;50.326;18.772;2022-12-18T14:30:42;100443.05;;;2.81;50.61
56825;BME280;42705;50.326;18.772;2022-12-18T14:36:05;100441.56;;;2.02;50.77
56825;BME280;42705;50.326;18.772;2022-12-18T14:41:30;100444.20;;;1.43;51.46
56825;BME280;42705;50.326;18.772;2022-12-18T14:46:53;100463.30;;;0.91;51.99
56825;BME280;42705;50.326;18.772;2022-12-18T14:52:29;100468.13;;;0.38;52.46
56825;BME280;42705;50.326;18.772;2022-12-18T14:57:54;100472.72;;;-0.09;52.99
56825;BME280;42705;50.326;18.772;2022-12-18T15:03:20;100487.48;;;-0.52;53.42
56825;BME280;42705;50.326;18.772;2022-12-18T15:08:42;100492.66;;;-0.91;53.91
56825;BME280;42705;50.326;18.772;2022-12-18T15:20:00;100505.66;;;-1.51;54.62
56825;BME280;42705;50.326;18.772;2022-12-18T15:25:32;100504.17;;;-1.78;55.07
56825;BME280;42705;50.326;18.772;2022-12-18T15:36:24;100518.14;;;-2.20;55.81
56825;BME280;42705;50.326;18.772;2022-12-18T15:41:48;100527.21;;;-2.37;56.14
56825;BME280;42705;50.326;18.772;2022-12-18T15:47:18;100525.55;;;-2.53;56.52
56825;BME280;42705;50.326;18.772;2022-12-18T15:52:41;100520.91;;;-2.65;56.84
56825;BME280;42705;50.326;18.772;2022-12-18T15:58:06;100533.75;;;-2.72;57.13
56825;BME280;42705;50.326;18.772;2022-12-18T16:03:29;100544.06;;;-2.80;57.39
56825;BME280;42705;50.326;18.772;2022-12-18T16:08:50;100536.38;;;-2.88;57.62
56825;BME280;42705;50.326;18.772;2022-12-18T16:14:20;100536.39;;;-2.94;57.77
56825;BME280;42705;50.326;18.772;2022-12-18T16:19:47;100545.36;;;-3.03;57.95
56825;BME280;42705;50.326;18.772;2022-12-18T16:25:19;100549.66;;;-3.12;58.16
56825;BME280;42705;50.326;18.772;2022-12-18T16:30:44;100539.86;;;-3.18;58.35
56825;BME280;42705;50.326;18.772;2022-12-18T16:36:06;100533.86;;;-3.22;58.47
56825;BME280;42705;50.326;18.772;2022-12-18T16:41:28;100541.99;;;-3.27;58.62
56825;BME280;42705;50.326;18.772;2022-12-18T16:46:52;100539.85;;;-3.34;58.77
56825;BME280;42705;50.326;18.772;2022-12-18T16:52:13;100533.45;;;-3.40;58.87
56825;BME280;42705;50.326;18.772;2022-12-18T16:57:35;100523.19;;;-3.48;58.95
56825;BME280;42705;50.326;18.772;2022-12-18T17:02:56;100512.97;;;-3.59;59.01
56825;BME280;42705;50.326;18.772;2022-12-18T17:08:17;100511.67;;;-3.76;59.03
56825;BME280;42705;50.326;18.772;2022-12-18T17:13:39;100492.86;;;-4.03;59.16
56825;BME280;42705;50.326;18.772;2022-12-18T17:19:00;100489.39;;;-4.21;59.38
56825;BME280;42705;50.326;18.772;2022-12-18T17:24:22;100486.80;;;-4.39;59.59
56825;BME280;42705;50.326;18.772;2022-12-18T17:29:43;100492.62;;;-4.76;59.66
56825;BME280;42705;50.326;18.772;2022-12-18T17:35:05;100477.70;;;-4.83;60.51
56825;BME280;42705;50.326;18.772;2022-12-18T17:40:27;100495.58;;;-4.84;60.91
56825;BME280;42705;50.326;18.772;2022-12-18T17:45:48;100508.81;;;-4.80;61.18
56825;BME280;42705;50.326;18.772;2022-12-18T17:51:09;100498.23;;;-4.66;61.39
56825;BME280;42705;50.326;18.772;2022-12-18T17:56:31;100494.81;;;-4.71;61.22
56825;BME280;42705;50.326;18.772;2022-12-18T18:01:52;100500.73;;;-4.75;61.25
56825;BME280;42705;50.326;18.772;2022-12-18T18:07:13;100500.22;;;-4.95;61.12
56825;BME280;42705;50.326;18.772;2022-12-18T18:12:35;100512.63;;;-4.88;61.78
56825;BME280;42705;50.326;18.772;2022-12-18T18:18:15;100507.09;;;-4.84;61.75
56825;BME280;42705;50.326;18.772;2022-12-18T18:23:36;100504.94;;;-4.91;61.75
56825;BME280;42705;50.326;18.772;2022-12-18T18:28:59;100517.27;;;-4.94;61.68
56825;BME280;42705;50.326;18.772;2022-12-18T18:34:23;100512.58;;;-4.96;61.80
56825;BME280;42705;50.326;18.772;2022-12-18T18:39:46;100516.80;;;-4.99;61.72
56825;BME280;42705;50.326;18.772;2022-12-18T18:45:08;100515.83;;;-5.23;61.51
56825;BME280;42705;50.326;18.772;2022-12-18T18:50:30;100514.82;;;-5.45;61.82
56825;BME280;42705;50.326;18.772;2022-12-18T18:55:51;100537.33;;;-5.49;61.98
56825;BME280;42705;50.326;18.772;2022-12-18T19:01:19;100556.08;;;-5.49;62.33
56825;BME280;42705;50.326;18.772;2022-12-18T19:06:38;100556.88;;;-5.55;62.21
56825;BME280;42705;50.326;18.772;2022-12-18T19:12:00;100554.71;;;-5.61;62.40
56825;BME280;42705;50.326;18.772;2022-12-18T19:17:42;100551.69;;;-5.64;62.54
56825;BME280;42705;50.326;18.772;2022-12-18T19:23:04;100552.56;;;-5.62;62.70
56825;BME280;42705;50.326;18.772;2022-12-18T19:28:30;100552.56;;;-5.62;62.64
56825;BME280;42705;50.326;18.772;2022-12-18T19:33:53;100571.50;;;-5.85;62.55
56825;BME280;42705;50.326;18.772;2022-12-18T19:39:19;100577.05;;;-5.86;62.80
56825;BME280;42705;50.326;18.772;2022-12-18T19:44:42;100572.72;;;-5.90;62.90
56825;BME280;42705;50.326;18.772;2022-12-18T19:50:04;100553.69;;;-5.79;63.18
56825;BME280;42705;50.326;18.772;2022-12-18T19:55:27;100542.20;;;-5.81;62.95
56825;BME280;42705;50.326;18.772;2022-12-18T20:00:49;100542.05;;;-5.93;62.73
56825;BME280;42705;50.326;18.772;2022-12-18T20:06:24;100552.96;;;-6.13;62.87
56825;BME280;42705;50.326;18.772;2022-12-18T20:11:54;100542.66;;;-6.22;63.01
56825;BME280;42705;50.326;18.772;2022-12-18T20:17:16;100537.02;;;-6.31;63.40
56825;BME280;42705;50.326;18.772;2022-12-18T20:22:37;100547.23;;;-6.31;63.30
56825;BME280;42705;50.326;18.772;2022-12-18T20:27:59;100536.33;;;-6.55;63.22
56825;BME280;42705;50.326;18.772;2022-12-18T20:33:20;100537.75;;;-6.76;63.43
56825;BME280;42705;50.326;18.772;2022-12-18T20:38:46;100528.45;;;-6.72;63.84
56825;BME280;42705;50.326;18.772;2022-12-18T20:44:15;100531.84;;;-6.72;63.83
56825;BME280;42705;50.326;18.772;2022-12-18T20:49:39;100519.02;;;-6.78;63.99
56825;BME280;42705;50.326;18.772;2022-12-18T20:55:03;100526.44;;;-6.96;63.90
56825;BME280;42705;50.326;18.772;2022-12-18T21:00:29;100530.59;;;-7.02;64.15
56825;BME280;42705;50.326;18.772;2022-12-18T21:05:50;100522.81;;;-7.13;64.25
56825;BME280;42705;50.326;18.772;2022-12-18T21:17:02;100526.13;;;-7.18;64.36
56825;BME280;42705;50.326;18.772;2022-12-18T21:22:25;100518.70;;;-7.33;64.46
56825;BME280;42705;50.326;18.772;2022-12-18T21:27:50;100515.37;;;-7.29;64.68
56825;BME280;42705;50.326;18.772;2022-12-18T21:33:11;100514.58;;;-7.24;64.72
56825;BME280;42705;50.326;18.772;2022-12-18T21:38:32;100514.73;;;-7.14;65.02
56825;BME280;42705;50.326;18.772;2022-12-18T21:43:56;100513.11;;;-7.08;64.76
56825;BME280;42705;50.326;18.772;2022-12-18T21:49:27;100522.19;;;-6.96;64.97
56825;BME280;42705;50.326;18.772;2022-12-18T21:54:48;100520.39;;;-7.03;64.73
56825;BME280;42705;50.326;18.772;2022-12-18T22:00:11;100509.92;;;-6.92;64.79
56825;BME280;42705;50.326;18.772;2022-12-18T22:05:35;100521.67;;;-7.03;64.28
56825;BME280;42705;50.326;18.772;2022-12-18T22:10:56;100514.62;;;-6.90;64.84
56825;BME280;42705;50.326;18.772;2022-12-18T22:16:18;100508.72;;;-6.86;64.75
56825;BME280;42705;50.326;18.772;2022-12-18T22:21:43;100507.98;;;-6.77;64.81
56825;BME280;42705;50.326;18.772;2022-12-18T22:27:08;100517.24;;;-6.84;64.54
56825;BME280;42705;50.326;18.772;2022-12-18T22:32:31;100518.08;;;-6.86;64.33
56825;BME280;42705;50.326;18.772;2022-12-18T22:37:54;100513.30;;;-6.93;64.35
56825;BME280;42705;50.326;18.772;2022-12-18T22:43:18;100512.75;;;-7.02;64.44
56825;BME280;42705;50.326;18.772;2022-12-18T22:48:39;100506.17;;;-6.87;64.78
56825;BME280;42705;50.326;18.772;2022-12-18T22:54:00;100498.96;;;-6.86;64.58
56825;BME280;42705;50.326;18.772;2022-12-18T22:59:22;100506.17;;;-6.87;64.67
56825;BME280;42705;50.326;18.772;2022-12-18T23:04:44;100504.45;;;-6.87;64.41
56825;BME280;42705;50.326;18.772;2022-12-18T23:10:06;100504.16;;;-6.78;64.60
56825;BME280;42705;50.326;18.772;2022-12-18T23:15:28;100504.50;;;-6.85;64.28
56825;BME280;42705;50.326;18.772;2022-12-18T23:20:50;100502.86;;;-6.80;64.59
56825;BME280;42705;50.326;18.772;2022-12-18T23:26:15;100502.96;;;-6.72;64.55
56825;BME280;42705;50.326;18.772;2022-12-18T23:31:38;100506.28;;;-6.78;64.37
56825;BME280;42705;50.326;18.772;2022-12-18T23:36:59;100497.42;;;-6.72;64.40
56825;BME280;42705;50.326;18.772;2022-12-18T23:42:20;100492.90;;;-6.61;64.50
56825;BME280;42705;50.326;18.772;2022-12-18T23:47:41;100489.84;;;-6.65;64.21
56825;BME280;42705;50.326;18.772;2022-12-18T23:53:02;100483.73;;;-6.81;63.96
56825;BME280;42705;50.326;18.772;2022-12-18T23:58:24;100463.78;;;-6.80;64.52
